Time;durP1;ratioP1;P1;durP2;ratioP2;P2;SDS_P1;SDS_P2;PMS_P1;PMS_P2;Temp;Humidity;BMP_temperature;BMP_pressure;BME280_temperature;BME280_humidity;BME280_pressure;Samples;Min_cycle;Max_cycle;Signal;HPM_P1;HPM_P2
2024/04/20 00:00:22;;;;;;;0.90;0.90;;;;;;;4.22;91.50;98081.59;6274034;22;20036;-85
2024/04/20 00:02:47;;;;;;;0.90;0.90;;;;;;;4.17;92.66;98076.94;6273426;22;20037;-85
2024/04/20 00:05:13;;;;;;;0.90;0.90;;;;;;;4.15;93.02;98073.34;6200227;22;20018;-84
2024/04/20 00:07:38;;;;;;;0.90;0.90;;;;;;;4.14;93.34;98077.72;6241318;22;19997;-85
2024/04/20 00:10:04;;;;;;;0.90;0.90;;;;;;;4.11;94.06;98080.22;6283408;22;20013;-85
2024/04/20 00:12:30;;;;;;;0.90;0.90;;;;;;;4.09;94.64;98072.25;6230261;22;20081;-84
2024/04/20 00:14:57;;;;;;;0.93;0.93;;;;;;;4.07;94.86;98080.91;6273302;22;20081;-85
2024/04/20 00:17:22;;;;;;;0.90;0.90;;;;;;;4.09;94.19;98082.81;6235647;22;20015;-85
2024/04/20 00:19:48;;;;;;;0.82;0.82;;;;;;;4.01;94.41;98080.66;6233318;22;20000;-85
2024/04/20 00:22:13;;;;;;;0.90;0.90;;;;;;;3.93;95.81;98079.41;6193325;22;20004;-85
2024/04/20 00:24:39;;;;;;;0.90;0.90;;;;;;;3.95;95.51;98076.00;6193595;22;20426;-85
2024/04/20 00:27:06;;;;;;;0.90;0.90;;;;;;;3.96;95.38;98084.81;6274576;22;20004;-84
2024/04/20 00:29:32;;;;;;;1.00;1.00;;;;;;;4.09;95.22;98082.81;6273851;22;20077;-85
2024/04/20 00:31:57;;;;;;;0.95;0.95;;;;;;;3.99;95.53;98077.97;6191570;22;20430;-85
2024/04/20 00:34:23;;;;;;;0.90;0.90;;;;;;;4.02;95.95;98070.16;6231573;22;20045;-84
2024/04/20 00:36:52;;;;;;;0.90;0.90;;;;;;;4.04;95.08;98072.88;6231607;22;20007;-85
2024/04/20 00:39:18;;;;;;;0.90;0.90;;;;;;;4.06;95.43;98079.13;6278328;22;20005;-85
2024/04/20 00:41:48;;;;;;;0.80;0.80;;;;;;;4.02;95.98;98079.81;6231544;22;20436;-84
2024/04/20 00:44:13;;;;;;;0.90;0.90;;;;;;;4.00;95.01;98078.84;6230143;22;20008;-84
2024/04/20 00:46:39;;;;;;;0.90;0.90;;;;;;;4.05;95.61;98079.97;6190555;22;20024;-85
2024/04/20 00:49:05;;;;;;;1.00;1.00;;;;;;;4.08;95.72;98078.38;6190810;22;20016;-84
2024/04/20 00:51:31;;;;;;;0.90;0.90;;;;;;;4.05;95.55;98082.59;6271317;22;20025;-84
2024/04/20 00:53:59;;;;;;;0.90;0.90;;;;;;;4.09;95.19;98077.53;6229545;22;20428;-85
2024/04/20 00:56:25;;;;;;;0.90;0.90;;;;;;;4.13;95.04;98088.22;6228934;22;20000;-84
2024/04/20 00:58:51;;;;;;;0.90;0.90;;;;;;;4.11;95.72;98083.75;6270651;22;20036;-84
2024/04/20 01:01:16;;;;;;;0.90;0.90;;;;;;;4.12;95.43;98082.06;6228569;22;20024;-83
2024/04/20 01:03:42;;;;;;;0.90;0.90;;;;;;;4.08;96.79;98080.09;6270758;22;20013;-83
2024/04/20 01:06:08;;;;;;;0.90;0.90;;;;;;;4.19;95.77;98084.09;6273513;22;20015;-84
2024/04/20 01:08:34;;;;;;;0.90;0.90;;;;;;;4.18;95.59;98089.31;6190165;22;20012;-83
2024/04/20 01:11:00;;;;;;;0.90;0.90;;;;;;;4.25;95.80;98094.03;6271051;22;20061;-84
2024/04/20 01:13:28;;;;;;;0.90;0.90;;;;;;;4.21;95.93;98098.25;6229628;22;20025;-83
2024/04/20 01:15:54;;;;;;;0.90;0.90;;;;;;;4.28;95.41;98094.16;6190465;22;20000;-83
2024/04/20 01:18:20;;;;;;;0.90;0.90;;;;;;;4.24;94.64;98094.88;6230246;22;20315;-83
2024/04/20 01:20:46;;;;;;;0.90;0.90;;;;;;;4.21;95.05;98097.34;6270982;22;20528;-84
2024/04/20 01:23:12;;;;;;;0.95;0.95;;;;;;;4.21;94.41;98103.53;6271340;22;20005;-85
2024/04/20 01:25:47;;;;;;;0.98;0.98;;;;;;;4.25;94.19;98104.59;6270799;22;20125;-85
2024/04/20 01:28:12;;;;;;;1.00;1.00;;;;;;;4.22;93.96;98100.09;6230497;22;20005;-85
2024/04/20 01:30:38;;;;;;;1.00;1.00;;;;;;;4.18;93.06;98102.53;6229943;22;20057;-85
2024/04/20 01:33:03;;;;;;;1.00;1.00;;;;;;;4.11;93.91;98109.25;6230652;22;20011;-84
2024/04/20 01:35:29;;;;;;;0.90;0.90;;;;;;;4.10;94.09;98113.63;6271000;22;20767;-84
2024/04/20 01:37:56;;;;;;;0.90;0.90;;;;;;;4.15;93.53;98113.84;6271537;22;20004;-84
2024/04/20 01:40:22;;;;;;;0.90;0.90;;;;;;;4.10;93.03;98116.28;6270864;22;20008;-84
2024/04/20 01:42:47;;;;;;;0.90;0.90;;;;;;;4.11;93.37;98128.63;6271834;22;20008;-84
2024/04/20 01:45:13;;;;;;;0.90;0.90;;;;;;;4.04;93.47;98126.56;6229609;22;20008;-84
2024/04/20 01:47:40;;;;;;;0.90;0.90;;;;;;;4.09;92.85;98124.13;6271548;22;20004;-84
2024/04/20 01:50:06;;;;;;;1.00;1.00;;;;;;;4.10;92.92;98129.47;6269973;22;20014;-84
2024/04/20 01:52:32;;;;;;;1.00;1.00;;;;;;;4.14;91.39;98132.25;6271728;22;20009;-85
2024/04/20 01:54:58;;;;;;;0.90;0.90;;;;;;;4.05;92.40;98133.66;6190551;22;20020;-84
2024/04/20 01:57:23;;;;;;;0.90;0.90;;;;;;;4.00;92.04;98134.28;6271978;22;20001;-85
2024/04/20 01:59:49;;;;;;;1.00;1.00;;;;;;;4.00;93.04;98136.91;6229039;22;20052;-86
2024/04/20 02:02:14;;;;;;;1.00;1.00;;;;;;;3.98;92.91;98133.31;6270430;22;20001;-85
2024/04/20 02:04:40;;;;;;;0.90;0.90;;;;;;;3.90;93.72;98138.25;6229654;22;20072;-86
2024/04/20 02:07:05;;;;;;;0.90;0.90;;;;;;;3.89;93.54;98147.00;6230421;22;20000;-85
2024/04/20 02:09:32;;;;;;;0.93;0.93;;;;;;;3.95;92.21;98141.09;6230027;22;20001;-85
2024/04/20 02:11:57;;;;;;;0.90;0.90;;;;;;;3.94;91.78;98150.75;6267947;22;20021;-85
2024/04/20 02:14:23;;;;;;;0.90;0.90;;;;;;;3.99;92.12;98145.69;6230257;22;19996;-85
2024/04/20 02:16:48;;;;;;;1.00;1.00;;;;;;;3.95;92.67;98151.66;6271182;22;19996;-85
2024/04/20 02:19:14;;;;;;;0.90;0.90;;;;;;;3.96;93.25;98142.88;6271251;22;20074;-86
2024/04/20 02:21:39;;;;;;;1.00;1.00;;;;;;;3.99;93.04;98149.22;6269504;22;20000;-85
2024/04/20 02:24:05;;;;;;;0.90;0.90;;;;;;;3.89;92.99;98146.09;6199608;22;19993;-85
2024/04/20 02:26:31;;;;;;;1.00;1.00;;;;;;;3.96;93.26;98153.44;6277195;22;20040;-85
2024/04/20 02:28:56;;;;;;;0.90;0.90;;;;;;;3.86;93.51;98155.66;6273306;22;20012;-85
2024/04/20 02:31:21;;;;;;;0.90;0.90;;;;;;;3.83;94.34;98158.19;6272314;22;20076;-86
2024/04/20 02:33:47;;;;;;;0.90;0.90;;;;;;;3.97;93.26;98165.81;6241638;22;20405;-84
2024/04/20 02:36:12;;;;;;;0.90;0.90;;;;;;;3.88;93.54;98166.31;6252420;22;20001;-86
2024/04/20 02:38:38;;;;;;;0.98;0.98;;;;;;;3.90;93.99;98164.63;6254439;22;19993;-86
2024/04/20 02:41:03;;;;;;;0.90;0.90;;;;;;;3.88;94.77;98165.38;6216110;22;19992;-85
2024/04/20 02:43:29;;;;;;;0.80;0.80;;;;;;;3.78;95.63;98164.94;6297103;22;19985;-85
2024/04/20 02:45:54;;;;;;;0.90;0.90;;;;;;;3.84;96.16;98174.91;6254635;22;20012;-86
2024/04/20 02:48:21;;;;;;;0.90;0.90;;;;;;;3.90;95.04;98179.56;6292395;22;20007;-86
2024/04/20 02:50:47;;;;;;;1.00;1.00;;;;;;;3.83;95.42;98175.72;6250607;22;20010;-85
2024/04/20 02:53:12;;;;;;;0.90;0.90;;;;;;;3.85;95.33;98169.69;6250185;22;20001;-85
2024/04/20 02:55:37;;;;;;;0.90;0.90;;;;;;;3.86;94.60;98170.59;6200530;22;19996;-85
2024/04/20 02:58:03;;;;;;;0.90;0.90;;;;;;;3.96;93.33;98171.91;6230252;22;19996;-84
2024/04/20 03:00:29;;;;;;;0.90;0.90;;;;;;;3.89;93.39;98175.13;6271278;22;20307;-86
2024/04/20 03:02:54;;;;;;;0.95;0.95;;;;;;;3.89;94.42;98165.47;6230157;22;20129;-85
2024/04/20 03:05:20;;;;;;;0.98;0.98;;;;;;;3.93;92.97;98169.13;6230681;22;20012;-85
2024/04/20 03:07:45;;;;;;;0.90;0.90;;;;;;;3.85;93.97;98179.34;6230423;22;20015;-85
2024/04/20 03:10:11;;;;;;;1.00;1.00;;;;;;;3.88;93.51;98176.88;6271483;22;20491;-85
2024/04/20 03:12:37;;;;;;;0.90;0.90;;;;;;;3.91;93.03;98176.09;6229055;22;20008;-85
2024/04/20 03:15:02;;;;;;;0.90;0.90;;;;;;;4.00;92.23;98187.06;6230224;22;19993;-85
2024/04/20 03:17:28;;;;;;;0.80;0.80;;;;;;;3.96;92.27;98188.66;6192019;22;20004;-85
2024/04/20 03:19:53;;;;;;;0.90;0.90;;;;;;;3.96;92.27;98191.28;6269764;22;19996;-85
2024/04/20 03:22:20;;;;;;;0.90;0.90;;;;;;;3.96;91.57;98188.66;6229594;22;19997;-85
2024/04/20 03:24:45;;;;;;;0.80;0.80;;;;;;;3.90;92.00;98195.41;6269653;22;20024;-84
2024/04/20 03:27:11;;;;;;;0.90;0.90;;;;;;;3.81;92.01;98194.13;6269394;22;20308;-85
2024/04/20 03:29:36;;;;;;;0.80;0.80;;;;;;;3.83;92.08;98200.41;6228224;22;20008;-84
2024/04/20 03:32:02;;;;;;;0.90;0.90;;;;;;;3.85;91.69;98206.63;6191394;22;20028;-84
2024/04/20 03:34:27;;;;;;;1.00;1.00;;;;;;;3.85;91.39;98211.91;6269714;22;20007;-83
2024/04/20 03:36:53;;;;;;;1.00;1.00;;;;;;;3.88;91.47;98215.50;6270157;22;20009;-84
2024/04/20 03:39:18;;;;;;;1.00;1.00;;;;;;;3.88;91.34;98223.44;6228519;22;20016;-84
2024/04/20 03:41:44;;;;;;;0.90;0.90;;;;;;;3.88;91.48;98232.28;6189462;22;20072;-83
2024/04/20 03:44:10;;;;;;;0.90;0.90;;;;;;;3.86;92.04;98236.56;6228796;22;20000;-84
2024/04/20 03:46:35;;;;;;;0.90;0.90;;;;;;;3.88;91.71;98236.63;6270313;22;20012;-84
2024/04/20 03:49:01;;;;;;;0.90;0.90;;;;;;;3.83;91.57;98232.06;6229330;22;20076;-84
2024/04/20 03:51:27;;;;;;;0.90;0.90;;;;;;;3.80;91.82;98242.47;6270696;22;20008;-85
2024/04/20 03:53:52;;;;;;;0.80;0.80;;;;;;;3.83;92.18;98233.78;6270585;22;20020;-84
2024/04/20 03:56:18;;;;;;;1.00;1.00;;;;;;;3.78;92.54;98238.81;6271105;22;19997;-85
2024/04/20 03:58:43;;;;;;;0.90;0.90;;;;;;;3.82;91.54;98234.59;6229506;22;19996;-86
2024/04/20 04:01:09;;;;;;;0.90;0.90;;;;;;;3.77;92.03;98247.56;6189995;22;20032;-84
2024/04/20 04:03:34;;;;;;;0.93;0.93;;;;;;;3.72;92.08;98237.63;6270548;22;20012;-85
2024/04/20 04:06:00;;;;;;;0.90;0.90;;;;;;;3.73;92.17;98239.44;6229981;22;20000;-84
2024/04/20 04:08:26;;;;;;;0.90;0.90;;;;;;;3.74;92.50;98246.56;6230407;22;20058;-85
2024/04/20 04:10:52;;;;;;;1.00;1.00;;;;;;;3.72;93.23;98256.09;6229828;22;20001;-86
2024/04/20 04:13:18;;;;;;;0.98;0.98;;;;;;;3.71;93.62;98257.84;6229514;22;20664;-86
2024/04/20 04:15:43;;;;;;;0.90;0.90;;;;;;;3.68;94.60;98257.69;6229227;22;19996;-85
2024/04/20 04:18:10;;;;;;;0.90;0.90;;;;;;;3.68;94.61;98268.25;6270389;22;20007;-85
2024/04/20 04:20:36;;;;;;;0.90;0.90;;;;;;;3.78;94.72;98273.13;6228356;22;20014;-85
2024/04/20 04:23:02;;;;;;;0.90;0.90;;;;;;;3.74;94.62;98273.84;6270143;22;20028;-84
2024/04/20 04:25:30;;;;;;;0.90;0.90;;;;;;;3.68;95.60;98276.16;6229774;22;20016;-85
2024/04/20 04:27:57;;;;;;;0.90;0.90;;;;;;;3.70;95.33;98277.16;6229551;22;20052;-86
2024/04/20 04:30:23;;;;;;;;;;;;;;;3.59;96.52;98284.56;6229722;22;20019;-86
2024/04/20 04:32:48;;;;;;;0.90;0.90;;;;;;;3.68;96.25;98285.81;6271356;22;20291;-85
2024/04/20 04:35:14;;;;;;;1.00;1.00;;;;;;;3.64;96.03;98281.19;6272621;22;20008;-85
2024/04/20 04:37:40;;;;;;;0.98;0.98;;;;;;;3.74;96.06;98297.59;6272874;22;19996;-86
2024/04/20 04:40:06;;;;;;;1.00;1.00;;;;;;;3.77;96.23;98291.53;6191566;22;20020;-85
2024/04/20 04:42:32;;;;;;;0.85;0.85;;;;;;;3.77;96.45;98304.72;6231877;22;20491;-85
2024/04/20 04:44:58;;;;;;;0.90;0.90;;;;;;;3.70;97.08;98307.91;6231488;22;20004;-85
2024/04/20 04:47:24;;;;;;;1.00;1.00;;;;;;;3.80;96.35;98300.50;6310799;22;20000;-85
2024/04/20 04:49:50;;;;;;;0.93;0.93;;;;;;;3.78;95.99;98312.69;6231409;22;20090;-85
2024/04/20 04:52:16;;;;;;;0.90;0.90;;;;;;;3.79;95.77;98314.53;6232044;22;20013;-86
2024/04/20 04:54:42;;;;;;;1.00;1.00;;;;;;;3.76;95.61;98311.75;6233142;22;20000;-85
2024/04/20 04:57:08;;;;;;;0.90;0.90;;;;;;;3.76;94.91;98316.13;6232389;22;20072;-85
2024/04/20 04:59:34;;;;;;;0.90;0.90;;;;;;;3.72;95.35;98322.97;6230685;22;20000;-85
2024/04/20 05:02:00;;;;;;;0.90;0.90;;;;;;;3.68;95.14;98322.75;6270774;22;20423;-86
2024/04/20 05:04:29;;;;;;;0.90;0.90;;;;;;;3.75;94.10;98323.13;6229318;22;20659;-86
2024/04/20 05:06:54;;;;;;;0.80;0.80;;;;;;;3.70;94.28;98339.56;6229345;22;20012;-86
2024/04/20 05:09:21;;;;;;;1.00;1.00;;;;;;;3.66;93.46;98337.59;6191327;22;20000;-86
2024/04/20 05:11:48;;;;;;;1.00;1.00;;;;;;;3.65;94.19;98339.34;6191217;22;20019;-85
2024/04/20 05:14:13;;;;;;;1.00;1.00;;;;;;;3.60;94.01;98347.03;6193281;22;20033;-86
2024/04/20 05:16:41;;;;;;;0.90;0.90;;;;;;;3.61;93.45;98347.91;6193555;22;20280;-86
2024/04/20 05:19:06;;;;;;;0.90;0.90;;;;;;;3.56;93.11;98347.69;6232449;22;20000;-86
2024/04/20 05:21:32;;;;;;;1.00;1.00;;;;;;;3.51;93.24;98353.56;6273683;22;20004;-86
2024/04/20 05:24:00;;;;;;;0.98;0.98;;;;;;;3.49;92.60;98365.75;6193964;22;20007;-86
2024/04/20 05:26:28;;;;;;;0.93;0.93;;;;;;;3.47;92.31;98359.50;6273941;22;20000;-84
2024/04/20 05:28:53;;;;;;;;;;;;;;;3.43;92.06;98370.72;6192908;22;20115;-84
2024/04/20 05:31:19;;;;;;;1.10;1.10;;;;;;;3.46;90.80;98370.91;6233134;22;19924;-85
2024/04/20 05:33:44;;;;;;;1.00;1.00;;;;;;;3.49;90.46;98378.94;6232265;22;20024;-86
2024/04/20 05:36:10;;;;;;;1.10;1.10;;;;;;;3.54;90.38;98393.25;6233624;22;20069;-86
2024/04/20 05:38:35;;;;;;;0.90;0.90;;;;;;;3.59;90.67;98389.13;6233050;22;20085;-85
2024/04/20 05:41:05;;;;;;;1.00;1.00;;;;;;;3.67;89.95;98390.44;6192933;22;19996;-85
2024/04/20 05:43:31;;;;;;;1.00;1.00;;;;;;;3.71;89.82;98402.03;6232247;22;20001;-86
2024/04/20 05:45:56;;;;;;;1.00;1.00;;;;;;;3.74;90.02;98400.47;6274680;22;20773;-86
2024/04/20 05:48:22;;;;;;;1.00;1.00;;;;;;;3.82;89.51;98406.13;6232440;22;20005;-86
2024/04/20 05:50:47;;;;;;;1.00;1.00;;;;;;;3.87;88.82;98415.16;6232914;22;20005;-86
2024/04/20 05:53:13;;;;;;;1.00;1.00;;;;;;;3.82;88.41;98414.94;6273978;22;20012;-86
2024/04/20 05:55:40;;;;;;;1.00;1.00;;;;;;;3.84;89.26;98418.56;6231968;22;20004;-85
2024/04/20 05:58:06;;;;;;;1.00;1.00;;;;;;;3.97;89.97;98419.16;6275356;22;20055;-86
2024/04/20 06:00:31;;;;;;;0.90;0.90;;;;;;;3.95;89.20;98415.56;6232369;22;20004;-86
2024/04/20 06:02:57;;;;;;;0.90;0.90;;;;;;;3.99;88.07;98429.00;6272193;22;20682;-85
2024/04/20 06:05:23;;;;;;;0.90;0.90;;;;;;;4.11;88.17;98433.97;6231523;22;20004;-85
2024/04/20 06:07:49;;;;;;;0.90;0.90;;;;;;;4.11;87.64;98429.56;6272621;22;20008;-85
2024/04/20 06:10:14;;;;;;;0.90;0.90;;;;;;;4.16;87.33;98431.53;6273031;22;20262;-86
2024/04/20 06:12:40;;;;;;;0.90;0.90;;;;;;;4.10;87.28;98433.06;6272197;22;20049;-86
2024/04/20 06:15:07;;;;;;;0.90;0.90;;;;;;;4.31;86.01;98435.88;6272472;22;20004;-86
2024/04/20 06:17:33;;;;;;;0.90;0.90;;;;;;;4.34;86.20;98445.66;6274173;22;20404;-86
2024/04/20 06:19:59;;;;;;;0.90;0.90;;;;;;;4.44;87.01;98442.63;6192897;22;20270;-86
2024/04/20 06:22:25;;;;;;;0.90;0.90;;;;;;;4.65;85.35;98448.03;6192594;22;20333;-86
2024/04/20 06:24:53;;;;;;;0.90;0.90;;;;;;;4.53;84.49;98445.72;6193022;22;20001;-86
2024/04/20 06:27:22;;;;;;;0.90;0.90;;;;;;;4.62;84.17;98451.44;6273346;22;20004;-87
2024/04/20 06:29:50;;;;;;;1.00;1.00;;;;;;;4.57;84.05;98446.78;6272961;22;20007;-87
2024/04/20 06:32:16;;;;;;;0.80;0.80;;;;;;;4.66;83.54;98443.66;6231733;22;20005;-85
2024/04/20 06:34:42;;;;;;;1.00;1.00;;;;;;;4.68;83.06;98449.91;6193262;22;20436;-86
2024/04/20 06:37:09;;;;;;;1.00;1.00;;;;;;;4.64;83.19;98456.78;6273258;22;20032;-86
2024/04/20 06:39:35;;;;;;;1.00;1.00;;;;;;;4.83;83.21;98455.91;6194075;22;20367;-87
2024/04/20 06:42:01;;;;;;;1.00;1.00;;;;;;;4.84;82.32;98455.09;6194400;22;20388;-85
2024/04/20 06:44:27;;;;;;;0.95;0.95;;;;;;;5.11;81.41;98458.09;6272833;22;20016;-86
2024/04/20 06:46:53;;;;;;;1.00;1.00;;;;;;;5.08;82.82;98469.47;6273288;22;20012;-85
2024/04/20 06:49:18;;;;;;;1.00;1.00;;;;;;;5.28;81.39;98467.72;6232302;22;20000;-85
2024/04/20 06:51:44;;;;;;;0.90;0.90;;;;;;;5.45;80.44;98464.94;6232496;22;20081;-85
2024/04/20 06:54:09;;;;;;;0.80;0.80;;;;;;;5.39;80.13;98466.47;6192484;22;20004;-83
2024/04/20 06:56:35;;;;;;;0.80;0.80;;;;;;;5.50;79.24;98477.50;6273366;22;20012;-86
2024/04/20 06:59:01;;;;;;;0.90;0.90;;;;;;;5.52;78.33;98482.91;6232228;22;20004;-86
2024/04/20 07:01:26;;;;;;;0.80;0.80;;;;;;;5.61;78.79;98478.91;6274482;22;20084;-86
2024/04/20 07:03:52;;;;;;;0.90;0.90;;;;;;;5.61;77.66;98480.66;6194384;22;19997;-86
2024/04/20 07:06:17;;;;;;;0.90;0.90;;;;;;;5.87;78.33;98482.69;6272183;22;20004;-83
2024/04/20 07:08:43;;;;;;;0.90;0.90;;;;;;;6.01;77.88;98482.44;6190837;22;20772;-84
2024/04/20 07:11:09;;;;;;;0.90;0.90;;;;;;;5.93;77.18;98483.84;6230088;22;20079;-84
2024/04/20 07:13:37;;;;;;;0.80;0.80;;;;;;;6.07;75.72;98491.53;6271508;22;20807;-83
2024/04/20 07:16:03;;;;;;;0.80;0.80;;;;;;;6.10;75.09;98498.72;6231132;22;20143;-84
2024/04/20 07:18:29;;;;;;;0.90;0.90;;;;;;;6.17;75.04;98500.78;6273014;22;20438;-84
2024/04/20 07:20:55;;;;;;;0.90;0.90;;;;;;;6.23;75.21;98508.06;6231322;22;20036;-83
2024/04/20 07:23:21;;;;;;;0.80;0.80;;;;;;;6.27;74.91;98507.34;6273251;22;20016;-83
2024/04/20 07:25:46;;;;;;;0.90;0.90;;;;;;;6.26;74.48;98509.09;6272483;22;20005;-84
2024/04/20 07:28:14;;;;;;;0.85;0.85;;;;;;;6.26;74.18;98508.22;6231225;22;20011;-83
2024/04/20 07:30:40;;;;;;;0.80;0.80;;;;;;;6.30;73.83;98520.75;6272206;22;20015;-85
2024/04/20 07:33:07;;;;;;;0.80;0.80;;;;;;;6.57;73.66;98516.59;6272179;22;20013;-83
2024/04/20 07:35:34;;;;;;;0.80;0.80;;;;;;;6.64;72.39;98525.69;6230751;22;20033;-84
2024/04/20 07:37:59;;;;;;;0.80;0.80;;;;;;;6.74;71.94;98519.94;6271908;22;20015;-84
2024/04/20 07:40:25;;;;;;;0.80;0.80;;;;;;;6.73;73.21;98526.09;6271714;22;19997;-85
2024/04/20 07:42:51;;;;;;;0.80;0.80;;;;;;;6.89;73.15;98539.09;6231391;22;20008;-85
2024/04/20 07:45:16;;;;;;;0.80;0.80;;;;;;;6.90;72.12;98540.94;6231352;22;20415;-85
2024/04/20 07:47:41;;;;;;;0.80;0.80;;;;;;;6.88;72.54;98539.97;6232497;22;20001;-86
2024/04/20 07:50:10;;;;;;;0.80;0.80;;;;;;;7.11;70.01;98538.22;6231249;22;20005;-86
2024/04/20 07:52:35;;;;;;;0.80;0.80;;;;;;;6.99;71.34;98544.78;6193211;22;20073;-85
2024/04/20 07:55:01;;;;;;;0.90;0.90;;;;;;;7.06;69.98;98553.06;6231958;22;20012;-87
2024/04/20 07:57:27;;;;;;;0.80;0.80;;;;;;;6.79;69.91;98562.53;6232893;22;20416;-87
2024/04/20 07:59:52;;;;;;;0.90;0.90;;;;;;;6.78;69.49;98564.28;6233552;22;20004;-85
2024/04/20 08:02:18;;;;;;;0.90;0.90;;;;;;;6.98;68.83;98553.59;6155157;22;20845;-86
2024/04/20 08:04:43;;;;;;;0.90;0.90;;;;;;;6.74;69.80;98557.06;6257539;22;20016;-85
2024/04/20 08:07:10;;;;;;;0.90;0.90;;;;;;;7.36;67.74;98556.00;6221873;22;20001;-86
2024/04/20 08:09:36;;;;;;;0.80;0.80;;;;;;;7.53;66.24;98567.28;6229996;22;20008;-84
2024/04/20 08:12:01;;;;;;;0.80;0.80;;;;;;;7.30;65.53;98566.38;6229222;22;20034;-85
2024/04/20 08:14:27;;;;;;;0.80;0.80;;;;;;;7.14;66.13;98569.28;6276197;22;20000;-85
2024/04/20 08:16:54;;;;;;;0.88;0.88;;;;;;;7.04;66.49;98578.63;6225919;22;20004;-85
2024/04/20 08:19:19;;;;;;;0.80;0.80;;;;;;;7.30;66.07;98571.69;6275730;22;20004;-86
2024/04/20 08:21:45;;;;;;;0.80;0.80;;;;;;;7.53;63.61;98574.34;6267738;22;19996;-85
2024/04/20 08:24:10;;;;;;;0.70;0.70;;;;;;;7.65;64.19;98578.34;6267188;22;20041;-85
2024/04/20 08:26:36;;;;;;;0.70;0.70;;;;;;;7.71;64.13;98580.34;6275128;22;19997;-85
2024/04/20 08:29:01;;;;;;;0.77;0.77;;;;;;;7.23;64.84;98593.50;6227321;22;20001;-85
2024/04/20 08:31:27;;;;;;;0.80;0.80;;;;;;;7.56;64.54;98587.72;6196851;22;20058;-85
2024/04/20 08:33:52;;;;;;;0.80;0.80;;;;;;;7.65;62.95;98585.41;6228161;22;20725;-85
2024/04/20 08:36:18;;;;;;;0.80;0.80;;;;;;;8.01;62.30;98585.91;6268556;22;20001;-84
2024/04/20 08:38:43;;;;;;;0.90;0.90;;;;;;;9.13;56.34;98587.13;6231250;22;20023;-86
2024/04/20 08:41:15;;;;;;;0.80;0.80;;;;;;;10.30;55.33;98588.91;6264327;22;20000;-86
2024/04/20 08:43:42;;;;;;;0.70;0.70;;;;;;;12.08;49.40;98576.38;6188880;22;20019;-86
2024/04/20 08:46:09;;;;;;;;;;;;;;;11.29;48.84;98579.03;6192342;22;20001;-85
2024/04/20 08:48:35;;;;;;;;;;;;;;;9.75;53.31;98596.19;6268437;22;19932;-87
2024/04/20 08:51:04;;;;;;;0.60;0.60;;;;;;;8.55;56.28;98596.72;6235543;22;20055;-84
2024/04/20 08:53:34;;;;;;;0.60;0.60;;;;;;;8.02;57.78;98610.72;6226008;22;20004;-83
2024/04/20 08:56:04;;;;;;;0.60;0.60;;;;;;;7.86;61.47;98610.16;6226092;22;20029;-84
2024/04/20 08:58:30;;;;;;;0.70;0.70;;;;;;;7.33;62.03;98608.97;6276254;22;20001;-83
2024/04/20 09:01:01;;;;;;;0.70;0.70;;;;;;;7.14;62.38;98617.06;6229597;22;20058;-86
2024/04/20 09:03:29;;;;;;;0.70;0.70;;;;;;;7.00;62.46;98628.84;6277742;22;20005;-84
2024/04/20 09:05:57;;;;;;;0.80;0.80;;;;;;;7.00;62.94;98615.59;6229471;22;20001;-85
2024/04/20 09:08:24;;;;;;;0.80;0.80;;;;;;;7.19;63.40;98623.44;6230113;22;20088;-86
2024/04/20 09:10:50;;;;;;;0.80;0.80;;;;;;;7.08;61.73;98625.63;6238666;22;20004;-86
2024/04/20 09:13:18;;;;;;;0.70;0.70;;;;;;;7.17;60.51;98627.75;6232367;22;19997;-85
2024/04/20 09:15:44;;;;;;;;;;;;;;;7.23;61.72;98637.72;6208572;22;20025;-86
2024/04/20 09:18:09;;;;;;;0.90;0.90;;;;;;;7.28;62.96;98633.50;6287372;22;19932;-85
2024/04/20 09:20:35;;;;;;;0.80;0.80;;;;;;;7.40;62.63;98636.66;6206762;22;20000;-85
2024/04/20 09:23:08;;;;;;;0.80;0.80;;;;;;;7.72;61.60;98641.50;6294873;22;20045;-85
2024/04/20 09:25:37;;;;;;;0.80;0.80;;;;;;;7.79;59.89;98644.38;6290894;22;20008;-87
2024/04/20 09:28:04;;;;;;;0.80;0.80;;;;;;;8.18;59.06;98647.63;6253601;22;20004;-87
2024/04/20 09:30:30;;;;;;;0.80;0.80;;;;;;;8.37;57.60;98634.19;6301483;22;20041;-87
2024/04/20 09:32:56;;;;;;;0.80;0.80;;;;;;;8.38;57.01;98636.00;6295816;22;20007;-89
2024/04/20 09:35:24;;;;;;;0.90;0.90;;;;;;;8.34;56.52;98642.03;6259949;22;19988;-88
2024/04/20 09:37:52;;;;;;;0.80;0.80;;;;;;;9.10;54.05;98645.56;6213459;22;20011;-87
2024/04/20 09:40:19;;;;;;;1.00;1.00;;;;;;;10.81;50.27;98636.56;6292718;22;19996;-89
2024/04/20 09:42:46;;;;;;;0.80;0.80;;;;;;;12.43;46.40;98625.25;6255608;22;20003;-89
2024/04/20 09:45:15;;;;;;;0.60;0.60;;;;;;;11.10;51.61;98631.97;6205287;22;20049;-87
2024/04/20 09:47:42;;;;;;;0.60;0.60;;;;;;;9.98;50.67;98644.84;6281863;22;20000;-89
2024/04/20 09:50:15;;;;;;;0.60;0.60;;;;;;;9.23;54.57;98653.13;6274282;22;20001;-86
2024/04/20 09:53:02;;;;;;;0.60;0.60;;;;;;;8.49;57.81;98660.34;6192998;22;20057;-88
2024/04/20 09:55:31;;;;;;;0.70;0.70;;;;;;;7.72;61.39;98661.84;6241540;22;20004;-87
2024/04/20 09:57:59;;;;;;;0.70;0.70;;;;;;;7.35;62.66;98665.66;6236005;22;20008;-87
2024/04/20 10:00:25;;;;;;;0.70;0.70;;;;;;;7.07;63.95;98668.03;6271884;22;20078;-86
2024/04/20 10:02:53;;;;;;;0.70;0.70;;;;;;;7.17;62.88;98671.13;6241639;22;20003;-87
2024/04/20 10:05:21;;;;;;;0.73;0.73;;;;;;;7.39;61.52;98661.41;6273272;22;20008;-88
2024/04/20 10:07:49;;;;;;;1.00;1.00;;;;;;;9.08;56.66;98661.50;6238502;22;20000;-87
2024/04/20 10:10:17;;;;;;;1.10;1.10;;;;;;;11.05;50.05;98638.09;6194687;22;20032;-87
2024/04/20 10:12:43;;;;;;;0.70;0.70;;;;;;;12.41;45.50;98640.38;6231675;22;20061;-88
2024/04/20 10:15:11;;;;;;;0.70;0.70;;;;;;;12.27;44.97;98639.19;6199365;22;20008;-88
2024/04/20 10:17:37;;;;;;;0.63;0.63;;;;;;;11.17;48.51;98641.97;6230683;22;20000;-88
2024/04/20 10:20:04;;;;;;;0.60;0.60;;;;;;;10.69;49.02;98647.81;6278697;22;20068;-86
2024/04/20 10:22:30;;;;;;;0.60;0.60;;;;;;;10.33;50.88;98648.56;6273004;22;20015;-87
2024/04/20 10:25:02;;;;;;;0.60;0.60;;;;;;;9.77;52.74;98655.72;6190326;22;20033;-88
2024/04/20 10:27:31;;;;;;;0.60;0.60;;;;;;;8.91;54.34;98657.34;6202865;22;20008;-86
2024/04/20 10:30:22;;;;;;;0.60;0.60;;;;;;;8.67;54.46;98668.97;6200238;22;20053;-88
2024/04/20 10:32:54;;;;;;;0.70;0.70;;;;;;;8.63;53.21;98667.06;6238591;22;20012;-89
2024/04/20 10:35:21;;;;;;;0.70;0.70;;;;;;;8.81;52.38;98669.44;6208511;22;20007;-86
2024/04/20 10:38:03;;;;;;;0.80;0.80;;;;;;;8.93;52.38;98674.28;6238703;22;20007;-88
2024/04/20 10:40:34;;;;;;;0.80;0.80;;;;;;;8.96;53.88;98677.97;6288451;22;20004;-87
2024/04/20 10:43:18;;;;;;;0.80;0.80;;;;;;;8.87;51.80;98679.41;6278561;22;20362;-89
2024/04/20 10:45:45;;;;;;;0.70;0.70;;;;;;;8.26;53.35;98687.78;6239949;22;20032;-89
2024/04/20 10:48:15;;;;;;;0.80;0.80;;;;;;;8.63;53.66;98685.66;6287863;22;20019;-88
2024/04/20 10:50:43;;;;;;;0.80;0.80;;;;;;;9.04;52.99;98682.63;6278786;22;20000;-90
2024/04/20 10:53:10;;;;;;;0.80;0.80;;;;;;;9.11;52.01;98692.66;6196379;22;20427;-90
2024/04/20 10:55:37;;;;;;;0.70;0.70;;;;;;;8.83;51.97;98693.44;6287664;22;20015;-89
2024/04/20 10:58:07;;;;;;;;;;;;;;;8.93;52.18;98688.50;6238599;22;20057;-87
2024/04/20 11:00:32;;;;;;;0.80;0.80;;;;;;;9.29;51.23;98685.25;6285546;22;19924;-88
2024/04/20 11:02:58;;;;;;;0.90;0.90;;;;;;;10.44;49.66;98687.16;6276847;22;20000;-89
2024/04/20 11:05:24;;;;;;;0.90;0.90;;;;;;;10.40;47.92;98684.34;6280904;22;20001;-88
2024/04/20 11:07:59;;;;;;;0.90;0.90;;;;;;;11.39;46.68;98686.09;6245333;22;20061;-88
2024/04/20 11:10:25;;;;;;;0.70;0.70;;;;;;;11.18;47.57;98686.47;6226997;22;20558;-88
2024/04/20 11:13:04;;;;;;;1.10;1.10;;;;;;;13.06;43.82;98686.25;6274888;22;20034;-88
2024/04/20 11:15:31;;;;;;;0.80;0.80;;;;;;;12.20;43.97;98683.59;6275685;22;20004;-86
2024/04/20 11:17:58;;;;;;;0.77;0.77;;;;;;;11.18;46.50;98687.38;6224902;22;20029;-88
2024/04/20 11:20:23;;;;;;;0.70;0.70;;;;;;;11.77;44.84;98690.63;6273843;22;20004;-88
2024/04/20 11:22:50;;;;;;;1.00;1.00;;;;;;;13.21;43.30;98690.97;6263774;22;20016;-88
2024/04/20 11:25:15;;;;;;;0.70;0.70;;;;;;;13.91;40.35;98680.56;6220303;22;20014;-88
2024/04/20 11:27:43;;;;;;;0.68;0.68;;;;;;;13.63;40.06;98684.59;6231183;22;20031;-89
2024/04/20 11:30:10;;;;;;;0.60;0.60;;;;;;;12.79;42.72;98680.34;6222332;22;20005;-86
2024/04/20 11:32:35;;;;;;;0.60;0.60;;;;;;;13.50;40.62;98677.22;6193589;22;20041;-87
2024/04/20 11:35:11;;;;;;;0.50;0.50;;;;;;;12.03;44.04;98685.94;6223270;22;20001;-87
2024/04/20 11:37:37;;;;;;;0.50;0.50;;;;;;;11.10;45.88;98691.59;6184824;22;20005;-86